createdAt,value
2022-12-18T00:01:22.039Z,91.07
2022-12-18T00:03:49.722Z,91.08
2022-12-18T00:06:17.627Z,91.18
2022-12-18T00:08:45.802Z,91.07
2022-12-18T00:11:15.609Z,91.36
2022-12-18T00:13:43.412Z,91.38
2022-12-18T00:16:14.351Z,91.34
2022-12-18T00:18:42.560Z,91.14
2022-12-18T00:21:11.665Z,91.20
2022-12-18T00:23:40.122Z,90.91
2022-12-18T00:26:11.372Z,90.68
2022-12-18T00:28:38.526Z,90.65
2022-12-18T00:31:08.574Z,90.59
2022-12-18T00:33:36.964Z,90.62
2022-12-18T00:36:05.193Z,90.65
2022-12-18T00:38:32.926Z,90.85
2022-12-18T00:40:59.688Z,90.70
2022-12-18T00:43:27.640Z,90.50
2022-12-18T00:45:54.837Z,90.52
2022-12-18T00:48:22.771Z,90.43
2022-12-18T00:50:50.275Z,90.63
2022-12-18T00:53:18.201Z,90.70
2022-12-18T00:55:46.658Z,90.39
2022-12-18T00:58:16.728Z,90.26
2022-12-18T01:00:45.495Z,90.13
2022-12-18T01:03:15.357Z,89.97
2022-12-18T01:05:43.040Z,90.11
2022-12-18T01:08:10.434Z,90.25
2022-12-18T01:10:37.454Z,90.41
2022-12-18T01:13:04.828Z,90.18
2022-12-18T01:15:31.918Z,90.21
2022-12-18T01:17:58.656Z,89.89
2022-12-18T01:20:25.419Z,89.82
2022-12-18T01:22:52.222Z,90.07
2022-12-18T01:25:19.044Z,89.85
2022-12-18T01:27:45.735Z,90.08
2022-12-18T01:30:13.039Z,90.09
2022-12-18T01:32:40.080Z,89.93
2022-12-18T01:35:07.878Z,89.66
2022-12-18T01:37:34.730Z,89.55
2022-12-18T01:40:01.484Z,89.27
2022-12-18T01:42:28.636Z,88.53
2022-12-18T01:44:58.913Z,88.84
2022-12-18T01:47:28.391Z,88.56
2022-12-18T01:49:56.895Z,88.80
2022-12-18T01:52:29.260Z,88.71
2022-12-18T01:54:57.191Z,88.99
2022-12-18T01:57:26.301Z,88.91
2022-12-18T01:59:57.795Z,89.01
2022-12-18T02:02:27.814Z,88.95
2022-12-18T02:04:55.009Z,88.83
2022-12-18T02:07:48.495Z,89.15
2022-12-18T02:11:01.388Z,89.62
2022-12-18T02:13:31.934Z,89.98
2022-12-18T02:16:22.517Z,89.58
2022-12-18T02:18:55.169Z,89.82
2022-12-18T02:21:37.263Z,90.26
2022-12-18T02:24:34.377Z,89.97
2022-12-18T02:27:05.852Z,89.96
2022-12-18T02:29:54.368Z,90.17
2022-12-18T02:32:32.768Z,89.97
2022-12-18T02:35:02.813Z,90.24
2022-12-18T02:37:31.776Z,90.24
2022-12-18T02:40:00.451Z,90.31
2022-12-18T02:42:29.077Z,89.93
2022-12-18T02:44:55.995Z,90.38
2022-12-18T02:47:25.183Z,90.05
2022-12-18T02:50:10.965Z,90.07
2022-12-18T02:52:53.148Z,90.18
2022-12-18T02:55:41.812Z,89.84
2022-12-18T02:58:16.241Z,90.00
2022-12-18T03:01:16.645Z,90.16
2022-12-18T03:03:48.791Z,90.01
2022-12-18T03:06:25.681Z,90.36
2022-12-18T03:08:59.425Z,90.05
2022-12-18T03:11:49.790Z,90.45
2022-12-18T03:14:21.010Z,90.31
2022-12-18T03:16:53.452Z,90.00
2022-12-18T03:19:25.475Z,90.23
2022-12-18T03:21:58.270Z,90.34
2022-12-18T03:24:29.462Z,90.21
2022-12-18T03:27:03.170Z,90.14
2022-12-18T03:29:36.241Z,90.39
2022-12-18T03:32:09.143Z,90.49
2022-12-18T03:34:39.753Z,90.14
2022-12-18T03:37:07.822Z,90.53
2022-12-18T03:39:37.376Z,90.38
2022-12-18T03:42:22.415Z,90.23
2022-12-18T03:44:58.341Z,90.37
2022-12-18T03:47:59.650Z,90.41
2022-12-18T03:50:42.448Z,90.37
2022-12-18T03:53:15.582Z,89.96
2022-12-18T03:55:44.647Z,90.22
2022-12-18T03:58:17.358Z,90.22
2022-12-18T04:00:45.875Z,89.96
2022-12-18T04:03:14.971Z,89.87
2022-12-18T04:05:44.043Z,89.70
2022-12-18T04:08:11.431Z,89.94
2022-12-18T04:10:38.619Z,89.75
2022-12-18T04:13:05.559Z,89.15
2022-12-18T04:15:36.694Z,89.11
2022-12-18T04:18:03.920Z,89.13
2022-12-18T04:20:31.033Z,88.64
2022-12-18T04:22:57.823Z,89.13
2022-12-18T04:25:24.619Z,89.01
2022-12-18T04:27:51.817Z,88.86
2022-12-18T04:30:18.519Z,88.91
2022-12-18T04:32:50.537Z,88.80
2022-12-18T04:35:19.104Z,88.57
2022-12-18T04:37:46.030Z,88.93
2022-12-18T04:40:13.468Z,88.88
2022-12-18T04:42:41.497Z,88.70
2022-12-18T04:45:09.132Z,89.03
2022-12-18T04:47:37.074Z,88.98
2022-12-18T04:50:04.793Z,88.76
2022-12-18T04:52:31.901Z,88.74
2022-12-18T04:54:59.131Z,88.44
2022-12-18T04:57:25.995Z,88.48
2022-12-18T04:59:53.104Z,88.80
2022-12-18T05:02:20.073Z,88.87
2022-12-18T05:04:47.659Z,88.77
2022-12-18T05:07:14.869Z,88.67
2022-12-18T05:09:41.832Z,88.89
2022-12-18T05:12:09.011Z,88.86
2022-12-18T05:14:36.718Z,89.17
2022-12-18T05:17:03.854Z,88.81
2022-12-18T05:19:30.990Z,88.91
2022-12-18T05:21:58.542Z,89.15
2022-12-18T05:24:25.548Z,88.83
2022-12-18T05:26:52.775Z,88.93
2022-12-18T05:29:19.835Z,89.19
2022-12-18T05:31:48.443Z,89.25
2022-12-18T05:34:15.901Z,88.87
2022-12-18T05:36:43.020Z,88.80
2022-12-18T05:39:11.714Z,88.89
2022-12-18T05:41:38.776Z,89.31
2022-12-18T05:44:06.071Z,89.55
2022-12-18T05:46:33.430Z,89.59
2022-12-18T05:49:02.107Z,89.64
2022-12-18T05:51:29.054Z,89.70
2022-12-18T05:53:56.761Z,89.44
2022-12-18T05:56:24.581Z,89.22
2022-12-18T05:58:55.695Z,89.46
2022-12-18T06:01:26.143Z,89.65
2022-12-18T06:03:53.280Z,89.66
2022-12-18T06:06:23.357Z,89.75
2022-12-18T06:08:51.541Z,89.48
2022-12-18T06:11:22.119Z,89.53
2022-12-18T06:13:57.911Z,88.78
2022-12-18T06:16:25.931Z,89.13
2022-12-18T06:18:53.132Z,88.22
2022-12-18T06:21:20.740Z,88.23
2022-12-18T06:23:47.909Z,88.74
2022-12-18T06:26:15.520Z,89.03
2022-12-18T06:28:42.864Z,89.02
2022-12-18T06:31:11.013Z,89.06
2022-12-18T06:33:39.813Z,89.05
2022-12-18T06:36:10.520Z,89.06
2022-12-18T06:38:39.293Z,88.99
2022-12-18T06:41:10.258Z,88.55
2022-12-18T06:43:38.300Z,88.86
2022-12-18T06:46:06.181Z,88.65
2022-12-18T06:48:34.076Z,87.92
2022-12-18T06:51:01.432Z,87.56
2022-12-18T06:53:29.691Z,87.35
2022-12-18T06:56:10.351Z,87.00
2022-12-18T06:58:39.114Z,86.92
2022-12-18T07:01:09.705Z,86.67
2022-12-18T07:03:38.785Z,86.38
2022-12-18T07:06:05.927Z,85.92
2022-12-18T07:08:33.733Z,86.18
2022-12-18T07:11:04.721Z,86.28
2022-12-18T07:13:32.127Z,87.07
2022-12-18T07:16:11.192Z,86.79
2022-12-18T07:18:42.448Z,86.79
2022-12-18T07:21:15.238Z,87.21
2022-12-18T07:23:42.725Z,87.85
2022-12-18T07:26:12.491Z,88.09
2022-12-18T07:28:41.522Z,88.36
2022-12-18T07:31:12.888Z,88.16
2022-12-18T07:33:40.286Z,88.13
2022-12-18T07:36:10.551Z,88.00
2022-12-18T07:38:38.147Z,88.00
2022-12-18T07:41:14.283Z,87.77
2022-12-18T07:43:42.500Z,87.71
2022-12-18T07:46:10.790Z,87.67
2022-12-18T07:48:43.768Z,87.88
2022-12-18T07:51:13.512Z,87.41
2022-12-18T07:53:41.463Z,87.64
2022-12-18T07:56:28.214Z,87.96
2022-12-18T07:58:55.866Z,87.78
2022-12-18T08:01:23.012Z,88.30
2022-12-18T08:03:52.293Z,88.42
2022-12-18T08:06:22.473Z,88.59
2022-12-18T08:08:56.101Z,88.64
2022-12-18T08:11:25.045Z,88.63
2022-12-18T08:13:52.928Z,88.83
2022-12-18T08:16:21.336Z,88.61
2022-12-18T08:18:49.761Z,89.02
2022-12-18T08:21:21.932Z,88.64
2022-12-18T08:23:51.501Z,89.02
2022-12-18T08:26:20.895Z,88.71
2022-12-18T08:28:49.239Z,89.05
2022-12-18T08:31:19.115Z,88.57
2022-12-18T08:33:48.813Z,88.71
2022-12-18T08:36:16.051Z,89.12
2022-12-18T08:38:43.316Z,88.77
2022-12-18T08:41:12.635Z,89.20
2022-12-18T08:43:58.677Z,88.67
2022-12-18T08:46:27.768Z,88.74
2022-12-18T08:48:56.844Z,89.25
2022-12-18T08:51:23.959Z,89.17
2022-12-18T08:53:50.715Z,89.02
2022-12-18T08:56:17.816Z,89.45
2022-12-18T08:58:45.289Z,89.38
2022-12-18T09:01:13.624Z,89.63
2022-12-18T09:03:41.581Z,89.26
2022-12-18T09:06:08.969Z,89.27
2022-12-18T09:08:38.203Z,89.48
2022-12-18T09:11:13.851Z,89.86
2022-12-18T09:13:41.075Z,89.83
2022-12-18T09:16:09.073Z,90.03
2022-12-18T09:18:35.861Z,90.22
2022-12-18T09:21:10.112Z,90.13
2022-12-18T09:23:36.906Z,90.45
2022-12-18T09:26:04.473Z,90.55
2022-12-18T09:28:31.611Z,90.56
2022-12-18T09:30:59.741Z,90.64
2022-12-18T09:33:26.727Z,90.62
2022-12-18T09:35:54.121Z,90.46
2022-12-18T09:38:21.251Z,90.26
2022-12-18T09:40:57.394Z,90.23
2022-12-18T09:43:42.057Z,89.26
2022-12-18T09:46:28.424Z,89.32
2022-12-18T09:49:01.852Z,87.87
2022-12-18T09:51:37.280Z,87.89
2022-12-18T09:54:08.374Z,88.01
2022-12-18T09:56:40.184Z,87.89
2022-12-18T09:59:06.915Z,86.93
2022-12-18T10:01:43.210Z,85.61
2022-12-18T10:04:11.454Z,84.66
2022-12-18T10:07:20.861Z,84.71
2022-12-18T10:09:53.907Z,81.23
2022-12-18T10:12:29.699Z,81.99
2022-12-18T10:15:05.629Z,82.46
2022-12-18T10:17:47.763Z,80.85
2022-12-18T10:20:33.045Z,80.18
2022-12-18T10:23:12.309Z,78.70
2022-12-18T10:25:52.369Z,76.76
2022-12-18T10:28:21.287Z,77.64
2022-12-18T10:30:48.122Z,77.35
2022-12-18T10:33:22.956Z,77.52
2022-12-18T10:35:53.535Z,74.33
2022-12-18T10:38:21.505Z,74.05
2022-12-18T10:41:03.851Z,71.65
2022-12-18T10:43:36.062Z,71.46
2022-12-18T10:46:09.215Z,71.74
2022-12-18T10:48:48.781Z,72.30
2022-12-18T10:51:34.546Z,72.05
2022-12-18T10:54:02.658Z,70.08
2022-12-18T10:56:32.552Z,70.55
2022-12-18T10:59:06.026Z,71.39
2022-12-18T11:01:47.089Z,71.86
2022-12-18T11:04:36.417Z,71.68
2022-12-18T11:07:06.623Z,69.74
2022-12-18T11:09:36.761Z,69.27
2022-12-18T11:12:24.230Z,68.71
2022-12-18T11:14:53.645Z,69.48
2022-12-18T11:17:26.090Z,68.88
2022-12-18T11:20:08.098Z,68.51
2022-12-18T11:22:37.866Z,68.23
2022-12-18T11:25:36.175Z,67.36
2022-12-18T11:28:06.917Z,67.91
2022-12-18T11:30:36.917Z,67.96
2022-12-18T11:33:13.449Z,68.75
2022-12-18T11:35:43.403Z,69.03
2022-12-18T11:38:13.003Z,68.85
2022-12-18T11:40:46.093Z,67.93
2022-12-18T11:43:27.259Z,67.47
2022-12-18T11:46:02.657Z,67.03
2022-12-18T11:48:46.671Z,65.08
2022-12-18T11:51:26.227Z,66.33
2022-12-18T11:53:54.585Z,65.40
2022-12-18T11:56:45.162Z,66.73
2022-12-18T11:59:50.547Z,67.13
2022-12-18T12:03:00.211Z,65.86
2022-12-18T12:05:45.297Z,65.88
2022-12-18T12:08:21.059Z,66.33
2022-12-18T12:11:09.781Z,65.47
2022-12-18T12:13:55.093Z,65.42
2022-12-18T12:16:35.800Z,65.39
2022-12-18T12:19:44.163Z,65.81
2022-12-18T12:22:37.842Z,65.03
2022-12-18T12:25:41.700Z,64.33
2022-12-18T12:28:17.738Z,65.19
2022-12-18T12:31:12.704Z,64.84
2022-12-18T12:34:02.096Z,64.55
2022-12-18T12:36:47.352Z,63.82
2022-12-18T12:39:20.614Z,64.84
2022-12-18T12:42:06.671Z,64.60
2022-12-18T12:44:41.128Z,64.82
2022-12-18T12:47:16.652Z,64.33
2022-12-18T12:49:48.721Z,63.86
2022-12-18T12:52:28.654Z,64.07
2022-12-18T12:54:57.831Z,63.23
2022-12-18T12:58:09.395Z,63.87
2022-12-18T13:00:48.615Z,64.02
2022-12-18T13:03:35.822Z,64.31
2022-12-18T13:06:13.831Z,64.23
2022-12-18T13:09:01.486Z,64.07
2022-12-18T13:12:01.429Z,64.13
2022-12-18T13:14:38.953Z,63.76
2022-12-18T13:17:15.777Z,64.25
2022-12-18T13:25:42.305Z,63.69
2022-12-18T13:28:26.216Z,64.14
2022-12-18T13:30:59.418Z,63.93
2022-12-18T13:33:27.126Z,63.21
2022-12-18T13:36:13.219Z,63.10
2022-12-18T13:38:43.867Z,63.72
2022-12-18T13:41:19.167Z,63.16
2022-12-18T13:43:49.122Z,63.27
2022-12-18T13:46:23.190Z,64.28
2022-12-18T13:48:56.232Z,64.27
2022-12-18T13:51:25.311Z,62.57
2022-12-18T13:53:58.485Z,63.13
2022-12-18T13:56:31.854Z,63.09
2022-12-18T13:59:18.597Z,62.67
2022-12-18T14:01:56.389Z,63.25
2022-12-18T14:04:35.850Z,62.99
2022-12-18T14:07:04.405Z,63.27
2022-12-18T14:09:37.613Z,63.29
2022-12-18T14:12:26.256Z,63.52
2022-12-18T14:14:55.308Z,63.75
2022-12-18T14:17:24.034Z,62.43
2022-12-18T14:19:52.519Z,62.98
2022-12-18T14:22:30.944Z,64.05
2022-12-18T14:25:13.668Z,64.18
2022-12-18T14:28:07.630Z,64.49
2022-12-18T14:30:40.620Z,63.92
2022-12-18T14:33:15.231Z,64.10
2022-12-18T14:35:53.905Z,64.00
2022-12-18T14:38:23.654Z,63.24
2022-12-18T14:41:05.960Z,63.20
2022-12-18T14:43:35.641Z,63.34
2022-12-18T14:46:04.465Z,63.20
2022-12-18T14:48:37.013Z,63.31
2022-12-18T14:51:17.817Z,63.45
2022-12-18T14:53:54.370Z,63.01
2022-12-18T14:56:25.716Z,62.97
2022-12-18T14:58:56.569Z,62.09
2022-12-18T15:01:26.995Z,63.14
2022-12-18T15:03:56.778Z,62.66
2022-12-18T15:06:44.379Z,62.88
2022-12-18T15:09:24.272Z,63.09
2022-12-18T15:11:57.771Z,62.70
2022-12-18T15:14:38.109Z,63.38
2022-12-18T15:17:15.814Z,63.30
2022-12-18T15:19:44.696Z,63.55
2022-12-18T15:22:28.244Z,63.44
2022-12-18T15:24:57.168Z,63.59
2022-12-18T15:27:27.985Z,63.74
2022-12-18T15:30:10.650Z,64.17
2022-12-18T15:32:39.071Z,64.88
2022-12-18T15:35:12.092Z,64.57
2022-12-18T15:37:41.760Z,64.73
2022-12-18T15:40:13.925Z,64.26
2022-12-18T15:43:00.040Z,64.32
2022-12-18T15:45:26.961Z,63.50
2022-12-18T15:47:53.724Z,64.22
2022-12-18T15:50:22.526Z,64.37
2022-12-18T15:52:52.113Z,64.44
2022-12-18T15:55:42.834Z,64.20
2022-12-18T15:58:11.283Z,65.20
2022-12-18T16:00:41.135Z,65.02
2022-12-18T16:03:10.391Z,64.97
2022-12-18T16:05:37.529Z,65.18
2022-12-18T16:08:04.526Z,65.13
2022-12-18T16:10:31.749Z,65.59
2022-12-18T16:12:59.167Z,65.19
2022-12-18T16:15:26.615Z,65.37
2022-12-18T16:17:53.317Z,65.57
2022-12-18T16:20:23.006Z,65.81
2022-12-18T16:22:50.611Z,66.31
2022-12-18T16:25:25.215Z,66.53
2022-12-18T16:27:53.508Z,66.50
2022-12-18T16:30:23.732Z,66.95
2022-12-18T16:32:51.048Z,67.35
2022-12-18T16:35:18.170Z,67.23
2022-12-18T16:37:45.165Z,67.12
2022-12-18T16:40:14.629Z,67.55
2022-12-18T16:42:43.309Z,67.46
2022-12-18T16:45:13.294Z,67.61
2022-12-18T16:47:40.916Z,67.68
2022-12-18T16:50:09.080Z,67.66
2022-12-18T16:52:36.228Z,68.33
2022-12-18T16:55:04.051Z,69.13
2022-12-18T16:57:31.355Z,68.49
2022-12-18T17:00:04.461Z,68.96
2022-12-18T17:02:32.171Z,69.17
2022-12-18T17:04:59.691Z,69.53
2022-12-18T17:07:28.506Z,70.17
2022-12-18T17:09:55.799Z,69.76
2022-12-18T17:12:23.630Z,70.38
2022-12-18T17:14:50.808Z,70.50
2022-12-18T17:17:21.320Z,70.88
2022-12-18T17:19:49.638Z,71.07
2022-12-18T17:22:16.832Z,70.95
2022-12-18T17:24:44.000Z,71.62
2022-12-18T17:27:10.983Z,72.33
2022-12-18T17:29:42.482Z,72.19
2022-12-18T17:32:13.677Z,72.47
2022-12-18T17:34:41.237Z,72.63
2022-12-18T17:37:08.519Z,72.85
2022-12-18T17:39:35.652Z,72.28
2022-12-18T17:42:02.672Z,72.58
2022-12-18T17:44:29.861Z,72.67
2022-12-18T17:46:57.110Z,73.06
2022-12-18T17:49:24.216Z,72.79
2022-12-18T17:51:52.110Z,73.07
2022-12-18T17:54:19.349Z,72.95
2022-12-18T17:56:46.511Z,73.52
2022-12-18T17:59:13.649Z,73.32
2022-12-18T18:01:44.397Z,73.71
2022-12-18T18:04:12.122Z,73.89
2022-12-18T18:06:39.536Z,73.68
2022-12-18T18:09:08.651Z,73.38
2022-12-18T18:12:05.667Z,74.43
2022-12-18T18:14:33.201Z,74.41
2022-12-18T18:17:04.225Z,74.25
2022-12-18T18:19:32.689Z,74.29
2022-12-18T18:21:59.597Z,74.39
2022-12-18T18:24:26.372Z,74.57
2022-12-18T18:26:56.728Z,74.22
2022-12-18T18:29:26.530Z,74.14
2022-12-18T18:31:54.240Z,74.64
2022-12-18T18:34:26.507Z,74.33
2022-12-18T18:36:53.619Z,74.90
2022-12-18T18:39:21.139Z,74.56
2022-12-18T18:41:49.245Z,74.74
2022-12-18T18:44:18.339Z,74.88
2022-12-18T18:46:45.424Z,74.76
2022-12-18T18:49:13.739Z,74.68
2022-12-18T18:51:42.035Z,74.86
2022-12-18T18:54:09.698Z,75.02
2022-12-18T18:57:04.116Z,74.89
2022-12-18T18:59:31.641Z,75.08
2022-12-18T19:02:00.664Z,75.45
2022-12-18T19:04:36.408Z,75.06
2022-12-18T19:07:05.490Z,75.14
2022-12-18T19:09:32.449Z,74.78
2022-12-18T19:12:18.258Z,75.28
2022-12-18T19:14:45.297Z,75.19
2022-12-18T19:17:12.185Z,75.40
2022-12-18T19:19:39.663Z,75.17
2022-12-18T19:22:06.891Z,74.88
2022-12-18T19:24:33.962Z,75.41
2022-12-18T19:27:01.027Z,75.49
2022-12-18T19:29:29.004Z,75.35
2022-12-18T19:31:55.695Z,75.52
2022-12-18T19:34:22.670Z,75.27
2022-12-18T19:36:49.511Z,75.40
2022-12-18T19:39:19.243Z,75.35
2022-12-18T19:41:46.868Z,74.58
2022-12-18T19:44:15.996Z,74.38
2022-12-18T19:46:44.145Z,74.63
2022-12-18T19:49:17.558Z,74.36
2022-12-18T19:51:45.783Z,74.56
2022-12-18T19:54:17.177Z,74.88
2022-12-18T19:56:45.407Z,74.70
2022-12-18T19:59:12.535Z,74.30
2022-12-18T20:01:40.006Z,74.02
2022-12-18T20:04:07.570Z,74.28
2022-12-18T20:06:46.380Z,74.21
2022-12-18T20:09:13.578Z,74.14
2022-12-18T20:11:42.043Z,73.95
2022-12-18T20:14:16.900Z,74.01
2022-12-18T20:16:50.143Z,74.16
2022-12-18T20:19:17.571Z,74.21
2022-12-18T20:21:44.805Z,72.88
2022-12-18T20:24:12.953Z,73.69
2022-12-18T20:26:40.644Z,73.08
2022-12-18T20:29:08.939Z,73.59
2022-12-18T20:31:36.147Z,74.16
2022-12-18T20:34:04.900Z,74.30
2022-12-18T20:36:34.227Z,74.40
2022-12-18T20:39:05.385Z,75.58
2022-12-18T20:41:37.871Z,76.69
2022-12-18T20:44:22.644Z,76.91
2022-12-18T20:47:00.349Z,77.66
2022-12-18T20:49:33.063Z,77.19
2022-12-18T20:52:02.385Z,76.75
2022-12-18T20:54:29.980Z,77.36
2022-12-18T20:56:57.028Z,78.25
2022-12-18T20:59:25.659Z,78.27
2022-12-18T21:01:56.236Z,78.25
2022-12-18T21:04:23.645Z,78.87
2022-12-18T21:06:57.855Z,77.48
2022-12-18T21:09:37.487Z,78.09
2022-12-18T21:12:34.860Z,78.41
2022-12-18T21:15:10.123Z,78.49
2022-12-18T21:17:44.058Z,78.76
2022-12-18T21:20:17.761Z,79.16
2022-12-18T21:22:46.901Z,79.91
2022-12-18T21:25:13.770Z,80.44
2022-12-18T21:27:41.142Z,80.86
2022-12-18T21:30:08.785Z,80.50
2022-12-18T21:32:35.836Z,80.29
2022-12-18T21:35:02.681Z,79.83
2022-12-18T21:37:29.678Z,80.40
2022-12-18T21:39:56.367Z,80.64
2022-12-18T21:42:41.835Z,80.83
2022-12-18T21:45:09.128Z,80.70
2022-12-18T21:47:36.248Z,79.92
2022-12-18T21:50:03.839Z,80.17
2022-12-18T21:52:32.023Z,80.07
2022-12-18T21:55:07.937Z,80.84
2022-12-18T21:57:37.863Z,81.58
2022-12-18T22:00:06.662Z,82.17
2022-12-18T22:02:33.542Z,81.46
2022-12-18T22:05:00.719Z,82.33
2022-12-18T22:07:29.281Z,82.06
2022-12-18T22:09:56.210Z,82.54
2022-12-18T22:12:43.192Z,83.00
2022-12-18T22:15:13.896Z,83.15
2022-12-18T22:17:50.768Z,83.78
2022-12-18T22:20:19.977Z,84.28
2022-12-18T22:22:51.603Z,84.63
2022-12-18T22:25:18.475Z,83.68
2022-12-18T22:28:05.357Z,84.04
2022-12-18T22:30:33.196Z,84.67
2022-12-18T22:33:01.086Z,85.22
2022-12-18T22:35:28.653Z,85.28
2022-12-18T22:37:55.804Z,84.32
2022-12-18T22:40:26.936Z,85.14
2022-12-18T22:42:54.823Z,86.37
2022-12-18T22:45:23.025Z,85.62
2022-12-18T22:47:50.453Z,86.36
2022-12-18T22:50:17.771Z,85.63
2022-12-18T22:52:44.566Z,86.34
2022-12-18T22:55:11.407Z,86.96
2022-12-18T22:57:38.038Z,87.50
2022-12-18T23:00:12.199Z,87.85
2022-12-18T23:02:39.250Z,88.30
2022-12-18T23:05:07.712Z,87.98
2022-12-18T23:07:36.133Z,88.03
2022-12-18T23:10:03.497Z,88.76
2022-12-18T23:12:30.583Z,89.40
2022-12-18T23:14:57.591Z,89.93
2022-12-18T23:17:24.743Z,90.28
2022-12-18T23:19:51.578Z,90.53
2022-12-18T23:22:19.917Z,91.97
2022-12-18T23:24:47.338Z,91.76
2022-12-18T23:27:14.466Z,91.74
2022-12-18T23:29:41.755Z,92.58
2022-12-18T23:32:09.004Z,92.23
2022-12-18T23:34:36.262Z,92.93
2022-12-18T23:37:03.919Z,92.63
2022-12-18T23:39:32.567Z,93.89
2022-12-18T23:42:00.028Z,93.14
2022-12-18T23:44:27.534Z,93.16
2022-12-18T23:46:55.107Z,92.84
2022-12-18T23:49:22.370Z,93.13
2022-12-18T23:51:49.620Z,93.21
2022-12-18T23:54:16.581Z,93.54
2022-12-18T23:56:43.788Z,93.55
2022-12-18T23:59:10.623Z,93.25
